AirNav   Pilot Hours Calculator
 
 1232 users online  

06C Schaumburg Regional Airport
Chicago/Schaumburg, Illinois, USA

GOING TO CHICAGO/SCHAUMBURG?


FAA INFORMATION EFFECTIVE 19 MAY 2022

Location

FAA Identifier: 06C
Lat/Long: 41-59-21.6270N 088-06-04.4740W
41-59.360450N 088-06.074567W
41.9893408,-88.1012428
(estimated)
Elevation: 801 ft. / 244 m (estimated)
Variation: 01W (1985)
From city: 22 miles NW of central business district of the associated city
Time zone: UTC -5 (UTC -6 during Standard Time)
Zip code: 60172

Airport Operations

Airport use: Open to the public
Control tower: no
ARTCC: CHICAGO CENTER
FSS: KANKAKEE FLIGHT SERVICE STATION
NOTAMs facility: IKK (NOTAM-D service available)
Attendance: OCT-APR 0700-1900, MAY-SEP 0700-2000
Pattern altitude: 1601 ft. MSL
Wind indicator: lighted
Segmented circle: no
Lights: MIRL RY 11/29 PRESET LOW INTST; TO INCR INTST & ACTVT TWY LGTS & REILS RY 11 & RY 29 - CTAF.
Beacon: white-green (lighted land airport)
Operates sunset to sunrise.

Airport Communications

CTAF/UNICOM: 123.0
WX AWOS-3: 128.275 ((847) 895-2887)
WX ASOS at DPA (8 nm SW): PHONE 630-587-3668
WX ASOS at ORD (9 nm E): PHONE 773-462-0118
WX ASOS at PWK (12 nm NE): PHONE 847-465-0291
WX ASOS at MDW (20 nm SE): PHONE 773-884-4424

Nearby radio navigation aids

VOR radial/distance  VOR name  Freq  Var
DPAr060/12.6DUPAGE VOR/DME108.4002E
OBKr208/15.4NORTHBROOK VOR/DME113.0002W
JOTr018/28.3JOLIET VOR/DME112.3002E
CGTr318/37.3CHICAGO HEIGHTS VORTAC114.2002E

Airport Services

Fuel available: 100LL JET-A
100LL:100LL SELF SRVC FUEL AVAILABLE AFTER HRS.
Parking: hangars and tiedowns
Airframe service: MAJOR
Powerplant service: MAJOR
Bottled oxygen: HIGH/LOW
Bulk oxygen: HIGH/LOW

Runway Information

Runway 11/29

Dimensions: 3800 x 100 ft. / 1158 x 30 m
HAS 100 FT STWY ON EACH END.
Surface: concrete, in good condition
Weight bearing capacity: 
Single wheel: 12.5
Double wheel: 12.5
Runway edge lights: medium intensity
RUNWAY 11  RUNWAY 29
Latitude: 41-59.442183N41-59.278733N
Longitude: 088-06.479333W088-05.669800W
Elevation: 801.0 ft.801.0 ft.
Traffic pattern: leftleft
Markings: basic, in good conditionbasic, in good condition
Visual slope indicator: 2-light PAPI on right (3.25 degrees glide path)2-light PAPI on left (3.00 degrees glide path)
Runway end identifier lights: yesyes
Touchdown point: yes, no lightsyes, no lights
Obstructions: 15 ft. brush, 251 ft. from runway, 92 ft. right of centerline, 4:1 slope to clear9 ft. brush, 276 ft. from runway, 26 ft. right of centerline, 8:1 slope to clear

Airport Ownership and Management from official FAA records

Ownership: Publicly-owned
Owner: VILLAGE OF SCHAUMBURG
101 SCHAUMBURG CT
SCHAUMBURG, IL 60193-1899
Phone 847-895-0007
Manager: KARYN ROBLES
101 SCHAUMBURG COURT
SCHAUMBURG, IL 60193
Phone 847-923-3859
EMERG CTC: 630-600-1439.

Airport Operational Statistics

Aircraft based on the field: 66
Single engine airplanes: 50
Multi engine airplanes: 4
Jet airplanes: 3
Helicopters: 9
    
Aircraft operations: avg 123/day *
53% transient general aviation
46% local general aviation
1% air taxi
* for 12-month period ending 31 July 2019

Additional Remarks

FOR NOISE ABATEMENT PROCEDURES CTC AMGR 847-923-3778.
WATER FOWL ON & INVOF RY 11/29.
RY 29 PREFERED RY IN CALM & DIRECT CROSSWINDS. DEP ACFT FLY RY HEADING TO 1400 FT MSL BEFORE STARTING CROSSWIND TURN.
BANNER TOWING PROHIBITED WITH IN 2 NM RADIUS OF ARPT.
FOR CD CTC CHICAGO APCH AT 847-289-0926.

Instrument Procedures

There are no published instrument procedures at 06C.

Some nearby airports with instrument procedures:

KDPA - DuPage Airport (8 nm SW)
KORD - Chicago O'Hare International Airport (9 nm E)
KPWK - Chicago Executive Airport (12 nm NE)
3CK - Lake in the Hills Airport (16 nm NW)
1C5 - Bolingbrook's Clow International Airport (18 nm S)
KMDW - Chicago Midway International Airport (20 nm SE)
 
Loc | Ops | Rwys | IFR | FBO | Links
Com | Nav | Svcs | Stats | Notes
Area around 06C (Schaumburg Regional Airport)
 
Road maps at: MapQuest Bing Google
 
Aerial photo
WARNING: Photo may not be current or correct
Aerial photo of 06C (Schaumburg Regional Airport)
Photo taken 23-Jun-2015
looking southeast.

Do you have a better or more recent aerial photo of Schaumburg Regional Airport that you would like to share? If so, please send us your photo.

 
Sectional chart

 
Airport distance calculator
Flying to Schaumburg Regional Airport? Find the distance to fly.

From to 06C

Sunrise and sunset
Times for 19-May-2022
 Local
(UTC-5)
 Zulu
(UTC)
Morning civil twilight04:5709:57
Sunrise05:2910:29
Sunset20:0901:09
Evening civil twilight20:4101:41

Current date and time
Zulu (UTC)  19-May-2022 23:05:39
Local (UTC-5)  19-May-2022 18:05:39
 
METAR
K06C 192255Z AUTO 21011G18KT 10SM CLR 29/10 A2949 RMK AO2 T02880102
KORD 
7nm E 
192251Z 18016G23KT 10SM BKN250 29/11 A2948 RMK AO2 PK WND 21028/2201 SLP979 T02940106 $
KDPA 
8nm SW 
192252Z 18010G21KT 10SM CLR 28/12 A2948 RMK AO2 SLP976 T02830117
KPWK 
12nm NE 
192252Z 18016G23KT 10SM CLR 30/10 A2950 RMK AO2 PK WND 19027/2213 SLP985 T03000100
KMDW 
20nm SE 
192253Z 18012G20KT 10SM FEW070 FEW150 BKN250 31/11 A2949 RMK AO2 SLP978 T03060106
TAF
KORD 
7nm E 
192101Z 1921/2024 20013G21KT P6SM FEW050 BKN100 FM192300 18013G21KT P6SM FEW050 SCT250 FM200200 19015G26KT P6SM SCT050 SCT250 FM200600 20012G20KT P6SM SCT050 SCT250 PROB30 2011/2014 3SM TSRA BKN050CB FM201600 21017G28KT P6SM SCT040 SCT150 FM202100 32012KT P6SM -SHRA BKN025
KDPA 
8nm SW 
192101Z 1921/2018 20013G21KT P6SM FEW050 BKN100 FM200000 18013G21KT P6SM FEW050 SCT250 FM200200 19015G26KT P6SM SCT050 SCT250 FM200600 20012G20KT P6SM SCT050 SCT250 PROB30 2011/2014 3SM TSRA BKN050CB FM201600 21017G28KT P6SM SCT040 SCT150
KMDW 
20nm SE 
192101Z 1921/2024 20013G21KT P6SM FEW050 BKN100 FM192300 18013G21KT P6SM FEW050 SCT250 FM200200 19015G26KT P6SM SCT050 SCT250 FM200600 20012G20KT P6SM SCT050 SCT250 PROB30 2011/2014 3SM TSRA BKN050CB FM201600 21017G28KT P6SM SCT040 SCT150 FM202100 32012KT P6SM -SHRA BKN025
NOTAMs
Click for the latest NOTAMs
NOTAMs are issued by the DoD/FAA and will open in a separate window not controlled by AirNav.

 

 
 

FBO, Fuel Providers, and Aircraft Ground Support

  
 Business Name 
 
 Contact 
 
 Services / Description 
 
Fuel Prices
 
Comments
  
revv aviation 847-986-5190
[web site]
Aviation fuel, Aircraft ground handling, Oxygen service, Aircraft parking (ramp or tiedown), GPU / Power cart, Passenger terminal and lounge, ...
More info and photos of revv aviation
Avfuel
100LL Jet A
FS $7.17 $7.48 
SS $6.63 --- 
 Updated 11-May-2022
 
   write
FS=Full service
SS=Self service
Update Fuel Prices
 

Would you like to see your business listed on this page?

 If your business provides an interesting product or service to pilots, flight crews, aircraft, or users of the Schaumburg Regional Airport, you should consider listing it here.  To start the listing process, click on the button below
 
Add a business
 

Other Pages about Schaumburg Regional Airport

www.ci.schaumburg.il.us/...
www.schaumburgairport.com/Schaumburg-Airport-Runway-Information.html
 
Update a link
 
Copyright © AirNav, LLC. All rights reserved. Privacy Policy  Contact